Bell M. Shimada — WTED — position and weather

sailwx.info

Track history (hours):
 
Tides and Currents Weather Stations Pressure Air Temp Water Temp Dewpoint Dewpoint Depression Visibility Wind Speed Wind Dir Waves Ship Positions

Oceanographic research ship Bell M. Shimada (USA)

Last reported at 2017-Jun-27 00:00 UTC. Time now 2017-Jun-27 00:20 UTC.
Position N 35°01' W 121°07'.

Length 58 m; draft 6.1 m.

Type: Other ship. MMSI: 369970147.

Date/timePositionNaut miles runAvg speedWind from/ knotsBaromVisibWave heightAir tempDewpointWater temp
2017-Jun-27 00:00N 35°01' W 121°07'2 3.3
2017-Jun-26 23:30N 34°60' W 121°05'2 4.0
2017-Jun-26 23:01N 34°59' W 121°03'1 1.4
2017-Jun-26 22:30N 34°58' W 121°03'0 0.3
2017-Jun-26 22:00N 34°58' W 121°02'5 9.9
2017-Jun-26 21:31N 34°59' W 121°08'4 8.0
2017-Jun-26 21:00N 34°59' W 121°03'4 7.5
2017-Jun-26 20:30N 34°59' W 120°59'510.1
2017-Jun-26 20:00N 34°59' W 120°53'510.1
2017-Jun-26 19:30N 34°59' W 120°46'3 5.0
2017-Jun-26 19:00N 34°58' W 120°44'510.2
2017-Jun-26 18:30N 34°53' W 120°44'3 6.6
2017-Jun-26 18:01N 34°49' W 120°44'510.6
2017-Jun-26 17:30N 34°49' W 120°51'510.9
2017-Jun-26 17:00N 34°49' W 120°58'510.8
2017-Jun-26 16:30N 34°49' W 121°04'510.9
2017-Jun-26 16:00N 34°49' W 121°11'5 9.6
2017-Jun-26 15:30N 34°49' W 121°17'3 6.0
2017-Jun-26 15:00N 34°49' W 121°20'510.5
2017-Jun-26 14:30N 34°49' W 121°27'1111.1
2017-Jun-26 13:30N 34°49' W 121°40'510.9
2017-Jun-26 13:00N 34°49' W 121°47'1 1.9
2017-Jun-26 12:28N 34°49' W 121°48'0 0.4
2017-Jun-26 12:01N 34°49' W 121°48'0 0.4
2017-Jun-26 11:31N 34°49' W 121°48'0 0.5
2017-Jun-26 11:00N 34°49' W 121°48'0 0.5
2017-Jun-26 10:29N 34°50' W 121°48'6 9.6
2017-Jun-26 09:52N 34°50' W 121°41'411.3
2017-Jun-26 09:30N 34°50' W 121°36'711.1
2017-Jun-26 08:54N 34°50' W 121°27'711.4
2017-Jun-26 08:20N 34°50' W 121°20'411.5
2017-Jun-26 08:00N 34°49' W 121°15'611.3
2017-Jun-26 07:30N 34°50' W 121°08'3 5.3
2017-Jun-26 07:01N 34°50' W 121°05'1 2.8
2017-Jun-26 06:30N 34°49' W 121°03'510.2
2017-Jun-26 06:00N 34°50' W 120°57'0 0.9
2017-Jun-26 05:30N 34°49' W 120°56'4 8.7
2017-Jun-26 05:00N 34°49' W 120°51'1 1.3
2017-Jun-26 04:30N 34°49' W 120°50'4 8.5
2017-Jun-26 04:01N 34°45' W 120°49'611.0
2017-Jun-26 03:31N 34°40' W 120°46'510.8
2017-Jun-26 03:01N 34°35' W 120°44'5 9.8
2017-Jun-26 02:31N 34°31' W 120°41'611.0
2017-Jun-26 02:00N 34°30' W 120°34'1 1.8
2017-Jun-26 01:30N 34°30' W 120°33'1 2.0
2017-Jun-26 01:00N 34°29' W 120°34'510.7
2017-Jun-26 00:31N 34°29' W 120°41'2 2.9
2017-Jun-25 23:59N 34°29' W 120°42'0 0.3
2017-Jun-25 23:29N 34°29' W 120°42'1 2.4
2017-Jun-25 22:59N 34°29' W 120°44'1 1.6
2017-Jun-25 22:30N 34°29' W 120°45'0 0.7
2017-Jun-25 22:01N 34°29' W 120°44'3 6.5
2017-Jun-25 21:30N 34°29' W 120°48'1 1.9
2017-Jun-25 21:01N 34°29' W 120°49'0 0.9
2017-Jun-25 20:30N 34°29' W 120°49'2 4.7
2017-Jun-25 20:00N 34°29' W 120°52'510.8
2017-Jun-25 19:30N 34°29' W 120°58'4 7.8
2017-Jun-25 19:00N 34°30' W 121°03'0 0.9
2017-Jun-25 18:29N 34°30' W 121°02'1 1.0
2017-Jun-25 17:59N 34°29' W 121°02'510.0
2017-Jun-25 17:30N 34°29' W 121°08'510.9
2017-Jun-25 17:00N 34°29' W 121°14'1 2.0
2017-Jun-25 16:30N 34°30' W 121°15'0 0.8
2017-Jun-25 15:59N 34°29' W 121°15'1 3.1
2017-Jun-25 15:31N 34°30' W 121°17'611.9
2017-Jun-25 15:00N 34°34' W 121°22'1211.9
2017-Jun-25 14:01N 34°45' W 121°28'611.6
2017-Jun-25 13:31N 34°50' W 121°32'611.5
2017-Jun-25 13:00N 34°54' W 121°36'612.3
2017-Jun-25 12:30N 34°60' W 121°40'612.4
2017-Jun-25 12:01N 35°05' W 121°44'713.1
2017-Jun-25 11:30N 35°10' W 121°48'713.1
2017-Jun-25 11:00N 35°16' W 121°53'612.9
2017-Jun-25 10:31N 35°21' W 121°57'612.5
2017-Jun-25 10:00N 35°26' W 122°01'611.9
2017-Jun-25 09:30N 35°31' W 122°05'612.4
2017-Jun-25 09:00N 35°36' W 122°09'612.5
2017-Jun-25 08:31N 35°42' W 122°14'612.5
2017-Jun-25 08:00N 35°47' W 122°18'612.4
2017-Jun-25 07:30N 35°52' W 122°22'612.2
2017-Jun-25 07:00N 35°57' W 122°26'612.0
2017-Jun-25 06:30N 36°02' W 122°30'611.9
2017-Jun-25 06:00N 36°07' W 122°34'611.8
2017-Jun-25 05:31N 36°12' W 122°39'611.9
2017-Jun-25 05:00N 36°17' W 122°43'611.7
2017-Jun-25 04:30N 36°21' W 122°47'612.3
2017-Jun-25 04:01N 36°26' W 122°52'5 9.4
2017-Jun-25 03:28N 36°31' W 122°55'1 1.5
2017-Jun-25 03:01N 36°31' W 122°54'1 2.6
2017-Jun-25 02:30N 36°30' W 122°53'1 2.6
2017-Jun-25 01:59N 36°29' W 122°51'2 3.5
2017-Jun-25 01:31N 36°29' W 122°50'1 2.0
2017-Jun-25 01:01N 36°28' W 122°48'612.3
2017-Jun-25 00:30N 36°34' W 122°51'612.3
2017-Jun-25 00:01N 36°39' W 122°55'612.2
2017-Jun-24 23:30N 36°45' W 122°59'612.4
2017-Jun-24 23:01N 36°50' W 123°03'612.5
2017-Jun-24 22:30N 36°55' W 123°07'611.6
2017-Jun-24 22:01N 36°60' W 123°11'2 4.8
2017-Jun-24 21:31N 37°02' W 123°13'1 1.6
2017-Jun-24 21:00N 37°02' W 123°12'1 2.4
2017-Jun-24 20:31N 37°02' W 123°10'5 9.3
2017-Jun-24 20:00N 37°06' W 123°13'510.4
2017-Jun-24 19:31N 37°10' W 123°16'3 5.7
2017-Jun-24 19:00N 37°13' W 123°18'1 3.0
2017-Jun-24 18:31N 37°12' W 123°16'2 4.2
2017-Jun-24 18:01N 37°10' W 123°15'1 2.5
2017-Jun-24 17:30N 37°09' W 123°14'511.1
2017-Jun-24 17:01N 37°14' W 123°17'611.9
2017-Jun-24 16:30N 37°19' W 123°21'611.9
2017-Jun-24 16:01N 37°25' W 123°23'612.0
2017-Jun-24 15:30N 37°30' W 123°27'612.3
2017-Jun-24 15:00N 37°36' W 123°31'1312.5
2017-Jun-24 14:00N 37°48' W 123°36'612.6
2017-Jun-24 13:30N 37°54' W 123°38'612.3
2017-Jun-24 13:00N 37°59' W 123°41'611.9
2017-Jun-24 12:30N 38°05' W 123°43'611.9
2017-Jun-24 12:01N 38°11' W 123°46'611.9
2017-Jun-24 11:30N 38°16' W 123°48'611.5
2017-Jun-24 11:00N 38°22' W 123°51'611.6
2017-Jun-24 10:31N 38°27' W 123°53'611.9
2017-Jun-24 10:00N 38°33' W 123°56'612.0
2017-Jun-24 09:30N 38°39' W 123°58'612.1
2017-Jun-24 09:00N 38°44' W 124°01'611.8
2017-Jun-24 08:31N 38°50' W 124°03'611.8
2017-Jun-24 08:01N 38°55' W 124°06'611.6
2017-Jun-24 07:31N 39°01' W 124°08'20611.8
2017-Jun-23 14:00N 42°23' W 124°55'612.3
2017-Jun-23 13:31N 42°30' W 124°55'612.8
2017-Jun-23 13:00N 42°36' W 124°55'612.8
2017-Jun-23 12:30N 42°42' W 124°56'612.5
2017-Jun-23 12:00N 42°49' W 124°56'612.5
2017-Jun-23 11:29N 42°55' W 124°54'1012.2
2017-Jun-23 10:40N 43°05' W 124°52'212.2
2017-Jun-23 10:30N 43°07' W 124°52'612.1
2017-Jun-23 10:01N 43°13' W 124°51'812.1
2017-Jun-23 09:22N 43°20' W 124°49'1712.3
2017-Jun-23 08:01N 43°37' W 124°46'012.3
2017-Jun-23 07:59N 43°37' W 124°46'912.0
2017-Jun-23 07:13N 43°47' W 124°44'212.1
2017-Jun-23 07:00N 43°49' W 124°44'612.0
2017-Jun-23 06:30N 43°55' W 124°43'612.3
2017-Jun-23 06:00N 44°01' W 124°40'510.7
2017-Jun-23 05:31N 44°05' W 124°36'611.9
2017-Jun-23 05:00N 44°11' W 124°32'612.6
2017-Jun-23 04:31N 44°16' W 124°28'713.2
2017-Jun-23 04:01N 44°22' W 124°24'712.9
2017-Jun-23 03:28N 44°28' W 124°19'4 9.2
2017-Jun-23 02:59N 44°31' W 124°14'510.2
2017-Jun-23 02:29N 44°35' W 124°09'4 9.0
2017-Jun-23 02:00N 44°37' W 124°04'1 0.1
2017-Jun-22 14:19N 44°38' W 124°03'0 0.0
2017-Jun-22 06:13N 44°38' W 124°03'0 0.0
2017-Jun-22 05:58N 44°38' W 124°03'0 0.0
2017-Jun-22 05:10N 44°38' W 124°03'0 0.0
2017-Jun-22 04:58N 44°38' W 124°03'0 0.0
2017-Jun-22 04:10N 44°38' W 124°03'0 0.0
2017-Jun-22 03:49N 44°38' W 124°03'0 0.0
2017-Jun-22 03:22N 44°38' W 124°03'0 0.0
2017-Jun-21 16:31N 44°38' W 124°03'0 0.0
2017-Jun-21 14:04N 44°38' W 124°03'0 0.0
2017-Jun-21 13:28N 44°38' W 124°03'0 0.0
2017-Jun-21 12:55N 44°38' W 124°03'0 0.0
2017-Jun-21 12:19N 44°38' W 124°03'0 0.0
2017-Jun-21 11:46N 44°38' W 124°03'0 0.0
2017-Jun-21 11:28N 44°38' W 124°03'0 0.0
2017-Jun-21 06:43N 44°38' W 124°03'0 0.0
2017-Jun-21 02:28N 44°38' W 124°03'0 0.0
2017-Jun-21 01:52N 44°38' W 124°03'0 0.0
2017-Jun-21 01:28N 44°38' W 124°03'0 0.0
2017-Jun-20 23:58N 44°38' W 124°03'0 0.0
2017-Jun-20 23:22N 44°38' W 124°03'0 0.0
2017-Jun-20 21:31N 44°38' W 124°03'0 0.0
2017-Jun-20 21:22N 44°38' W 124°03'0 0.0
2017-Jun-20 20:34N 44°38' W 124°03'0 0.0
2017-Jun-20 20:10N 44°38' W 124°03'0 0.0
2017-Jun-20 19:58N 44°38' W 124°03'0 0.0
2017-Jun-20 19:28N 44°38' W 124°03'0 0.0
2017-Jun-20 18:31N 44°38' W 124°03'0 0.0
2017-Jun-20 18:22N 44°38' W 124°03'0 0.0
2017-Jun-20 17:43N 44°38' W 124°03'0 0.0
2017-Jun-20 17:29N 44°38' W 124°03'2 5.1
2017-Jun-20 17:01N 44°36' W 124°06'2 5.0
2017-Jun-20 16:31N 44°36' W 124°09'0 0.9
2017-Jun-20 16:00N 44°37' W 124°09'1 1.1
2017-Jun-20 15:30N 44°37' W 124°09'1 1.1
2017-Jun-20 15:00N 44°38' W 124°09'1 1.0
2017-Jun-20 14:30N 44°38' W 124°09'2 1.7
2017-Jun-20 13:30N 44°38' W 124°12'2 4.0
2017-Jun-20 13:00N 44°39' W 124°14'2 4.0
2017-Jun-20 12:30N 44°39' W 124°17'2 4.2
2017-Jun-20 12:01N 44°40' W 124°20'2 4.3
2017-Jun-20 11:27N 44°41' W 124°23'2 4.5
2017-Jun-20 11:01N 44°40' W 124°26'0 0.7
2017-Jun-20 10:30N 44°40' W 124°26'0 0.1
2017-Jun-20 10:00N 44°40' W 124°26'0 0.1
2017-Jun-20 09:29N 44°40' W 124°26'0 0.0
2017-Jun-20 09:01N 44°40' W 124°26'0 0.0
2017-Jun-20 08:30N 44°40' W 124°26'0 0.0
2017-Jun-20 08:00N 44°40' W 124°26'0 0.1
2017-Jun-20 07:30N 44°40' W 124°26'0 0.0
2017-Jun-20 07:01N 44°40' W 124°26'0 0.0
2017-Jun-20 06:30N 44°40' W 124°26'1 0.8
2017-Jun-20 05:12N 44°40' W 124°25'0 0.8
2017-Jun-20 04:58N 44°41' W 124°25'1 0.8
2017-Jun-20 03:46N 44°41' W 124°24'0 0.8
2017-Jun-20 03:22N 44°42' W 124°24'1 1.0
2017-Jun-20 02:27N 44°42' W 124°23'1 1.2
2017-Jun-20 01:58N 44°42' W 124°22'1 1.2
2017-Jun-20 01:23N 44°42' W 124°21'0 1.1
2017-Jun-20 01:00N 44°43' W 124°20'4 4.1
2017-Jun-20 00:05N 44°40' W 124°16'110.7
2017-Jun-20 00:00N 44°40' W 124°15'510.0
2017-Jun-19 23:30N 44°37' W 124°09'4 7.2
2017-Jun-19 23:01N 44°37' W 124°04'1 1.0
2017-Jun-19 21:47N 44°38' W 124°03'0 0.0
2017-Jun-19 16:47N 44°38' W 124°03'0 0.0
2017-Jun-19 16:23N 44°38' W 124°03'0 0.0
2017-Jun-19 15:59N 44°38' W 124°03'0 0.0
2017-Jun-19 12:26N 44°38' W 124°03'0 0.0
2017-Jun-19 11:47N 44°38' W 124°03'0 0.0
2017-Jun-19 11:17N 44°38' W 124°03'0 0.0
2017-Jun-19 10:53N 44°38' W 124°03'0 0.0
2017-Jun-19 10:20N 44°38' W 124°03'0 0.0
2017-Jun-19 09:47N 44°38' W 124°03'0 0.0
2017-Jun-19 04:47N 44°38' W 124°03'0 0.0
2017-Jun-19 04:23N 44°38' W 124°03'0 0.0
2017-Jun-19 03:47N 44°38' W 124°03'0 0.0
2017-Jun-19 01:29N 44°38' W 124°03'0 0.0
2017-Jun-19 00:35N 44°38' W 124°03'0 0.0
2017-Jun-18 22:41N 44°38' W 124°03'0 0.0
2017-Jun-18 22:23N 44°38' W 124°03'0 0.0
2017-Jun-18 21:53N 44°38' W 124°03'0 0.0
2017-Jun-18 21:23N 44°38' W 124°03'0 0.0
2017-Jun-18 20:59N 44°38' W 124°03'0 0.0
2017-Jun-18 09:08N 44°38' W 124°03'0 0.0
2017-Jun-18 08:59N 44°38' W 124°03'0 0.0
2017-Jun-18 07:44N 44°38' W 124°03'0 0.0
2017-Jun-18 07:17N 44°38' W 124°03'0 0.0
2017-Jun-18 06:53N 44°38' W 124°03'0 0.0
2017-Jun-18 03:05N 44°38' W 124°03'0 0.0
2017-Jun-18 01:05N 44°38' W 124°03'0 0.0
2017-Jun-18 00:53N 44°38' W 124°03'0 0.0
2017-Jun-18 00:14N 44°38' W 124°03'0 0.0
2017-Jun-17 23:53N 44°38' W 124°03'0 0.0
2017-Jun-17 22:44N 44°38' W 124°03'0 0.0
2017-Jun-17 20:44N 44°38' W 124°03'0 0.0
2017-Jun-17 20:20N 44°38' W 124°03'0 0.0
2017-Jun-17 19:29N 44°38' W 124°03'0 0.0
2017-Jun-17 19:00N 44°38' W 124°03'0 0.0
2017-Jun-17 12:47N 44°38' W 124°03'0 0.0
2017-Jun-17 10:20N 44°38' W 124°03'0 0.0
2017-Jun-17 09:56N 44°38' W 124°03'0 0.0
2017-Jun-17 09:18N 44°38' W 124°03'0 0.0
2017-Jun-17 08:17N 44°38' W 124°03'0 0.0
2017-Jun-17 07:59N 44°38' W 124°03'0 0.0
2017-Jun-17 07:29N 44°38' W 124°03'0 0.0
2017-Jun-17 03:56N 44°38' W 124°03'0 0.0
2017-Jun-17 03:23N 44°38' W 124°03'0 0.0
2017-Jun-17 02:23N 44°38' W 124°03'0 0.0
2017-Jun-17 01:53N 44°38' W 124°03'0 0.0
2017-Jun-17 00:23N 44°38' W 124°03'  
Track history (hours):
 
Tides and Currents Weather Stations Pressure Air Temp Water Temp Dewpoint Dewpoint Depression Visibility Wind Speed Wind Dir Waves Ship Positions

Oceanographic research ship Bell M. Shimada (USA)

Last reported at 2017-Jun-27 00:00 UTC. Time now 2017-Jun-27 00:20 UTC.
Position N 35°01' W 121°07'.

Length 58 m; draft 6.1 m.

Type: Other ship. MMSI: 369970147.

Date/timePositionNaut miles runAvg speedWind from/ knotsBaromVisibWave heightAir tempDewpointWater temp
2017-Jun-27 00:00N 35°01' W 121°07'2 3.3
2017-Jun-26 23:30N 34°60' W 121°05'2 4.0
2017-Jun-26 23:01N 34°59' W 121°03'1 1.4
2017-Jun-26 22:30N 34°58' W 121°03'0 0.3
2017-Jun-26 22:00N 34°58' W 121°02'5 9.9
2017-Jun-26 21:31N 34°59' W 121°08'4 8.0
2017-Jun-26 21:00N 34°59' W 121°03'4 7.5
2017-Jun-26 20:30N 34°59' W 120°59'510.1
2017-Jun-26 20:00N 34°59' W 120°53'510.1
2017-Jun-26 19:30N 34°59' W 120°46'3 5.0
2017-Jun-26 19:00N 34°58' W 120°44'510.2
2017-Jun-26 18:30N 34°53' W 120°44'3 6.6
2017-Jun-26 18:01N 34°49' W 120°44'510.6
2017-Jun-26 17:30N 34°49' W 120°51'510.9
2017-Jun-26 17:00N 34°49' W 120°58'510.8
2017-Jun-26 16:30N 34°49' W 121°04'510.9
2017-Jun-26 16:00N 34°49' W 121°11'5 9.6
2017-Jun-26 15:30N 34°49' W 121°17'3 6.0
2017-Jun-26 15:00N 34°49' W 121°20'510.5
2017-Jun-26 14:30N 34°49' W 121°27'1111.1
2017-Jun-26 13:30N 34°49' W 121°40'510.9
2017-Jun-26 13:00N 34°49' W 121°47'1 1.9
2017-Jun-26 12:28N 34°49' W 121°48'0 0.4
2017-Jun-26 12:01N 34°49' W 121°48'0 0.4
2017-Jun-26 11:31N 34°49' W 121°48'0 0.5
2017-Jun-26 11:00N 34°49' W 121°48'0 0.5
2017-Jun-26 10:29N 34°50' W 121°48'6 9.6
2017-Jun-26 09:52N 34°50' W 121°41'411.3
2017-Jun-26 09:30N 34°50' W 121°36'711.1
2017-Jun-26 08:54N 34°50' W 121°27'711.4
2017-Jun-26 08:20N 34°50' W 121°20'411.5
2017-Jun-26 08:00N 34°49' W 121°15'611.3
2017-Jun-26 07:30N 34°50' W 121°08'3 5.3
2017-Jun-26 07:01N 34°50' W 121°05'1 2.8
2017-Jun-26 06:30N 34°49' W 121°03'510.2
2017-Jun-26 06:00N 34°50' W 120°57'0 0.9
2017-Jun-26 05:30N 34°49' W 120°56'4 8.7
2017-Jun-26 05:00N 34°49' W 120°51'1 1.3
2017-Jun-26 04:30N 34°49' W 120°50'4 8.5
2017-Jun-26 04:01N 34°45' W 120°49'611.0
2017-Jun-26 03:31N 34°40' W 120°46'510.8
2017-Jun-26 03:01N 34°35' W 120°44'5 9.8
2017-Jun-26 02:31N 34°31' W 120°41'611.0
2017-Jun-26 02:00N 34°30' W 120°34'1 1.8
2017-Jun-26 01:30N 34°30' W 120°33'1 2.0
2017-Jun-26 01:00N 34°29' W 120°34'510.7
2017-Jun-26 00:31N 34°29' W 120°41'2 2.9
2017-Jun-25 23:59N 34°29' W 120°42'0 0.3
2017-Jun-25 23:29N 34°29' W 120°42'1 2.4
2017-Jun-25 22:59N 34°29' W 120°44'1 1.6
2017-Jun-25 22:30N 34°29' W 120°45'0 0.7
2017-Jun-25 22:01N 34°29' W 120°44'3 6.5
2017-Jun-25 21:30N 34°29' W 120°48'1 1.9
2017-Jun-25 21:01N 34°29' W 120°49'0 0.9
2017-Jun-25 20:30N 34°29' W 120°49'2 4.7
2017-Jun-25 20:00N 34°29' W 120°52'510.8
2017-Jun-25 19:30N 34°29' W 120°58'4 7.8
2017-Jun-25 19:00N 34°30' W 121°03'0 0.9
2017-Jun-25 18:29N 34°30' W 121°02'1 1.0
2017-Jun-25 17:59N 34°29' W 121°02'510.0
2017-Jun-25 17:30N 34°29' W 121°08'510.9
2017-Jun-25 17:00N 34°29' W 121°14'1 2.0
2017-Jun-25 16:30N 34°30' W 121°15'0 0.8
2017-Jun-25 15:59N 34°29' W 121°15'1 3.1
2017-Jun-25 15:31N 34°30' W 121°17'611.9
2017-Jun-25 15:00N 34°34' W 121°22'1211.9
2017-Jun-25 14:01N 34°45' W 121°28'611.6
2017-Jun-25 13:31N 34°50' W 121°32'611.5
2017-Jun-25 13:00N 34°54' W 121°36'612.3
2017-Jun-25 12:30N 34°60' W 121°40'612.4
2017-Jun-25 12:01N 35°05' W 121°44'713.1
2017-Jun-25 11:30N 35°10' W 121°48'713.1
2017-Jun-25 11:00N 35°16' W 121°53'612.9
2017-Jun-25 10:31N 35°21' W 121°57'612.5
2017-Jun-25 10:00N 35°26' W 122°01'611.9
2017-Jun-25 09:30N 35°31' W 122°05'612.4
2017-Jun-25 09:00N 35°36' W 122°09'612.5
2017-Jun-25 08:31N 35°42' W 122°14'612.5
2017-Jun-25 08:00N 35°47' W 122°18'612.4
2017-Jun-25 07:30N 35°52' W 122°22'612.2
2017-Jun-25 07:00N 35°57' W 122°26'612.0
2017-Jun-25 06:30N 36°02' W 122°30'611.9
2017-Jun-25 06:00N 36°07' W 122°34'611.8
2017-Jun-25 05:31N 36°12' W 122°39'611.9
2017-Jun-25 05:00N 36°17' W 122°43'611.7
2017-Jun-25 04:30N 36°21' W 122°47'612.3
2017-Jun-25 04:01N 36°26' W 122°52'5 9.4
2017-Jun-25 03:28N 36°31' W 122°55'1 1.5
2017-Jun-25 03:01N 36°31' W 122°54'1 2.6
2017-Jun-25 02:30N 36°30' W 122°53'1 2.6
2017-Jun-25 01:59N 36°29' W 122°51'2 3.5
2017-Jun-25 01:31N 36°29' W 122°50'1 2.0
2017-Jun-25 01:01N 36°28' W 122°48'612.3
2017-Jun-25 00:30N 36°34' W 122°51'612.3
2017-Jun-25 00:01N 36°39' W 122°55'612.2
2017-Jun-24 23:30N 36°45' W 122°59'612.4
2017-Jun-24 23:01N 36°50' W 123°03'612.5
2017-Jun-24 22:30N 36°55' W 123°07'611.6
2017-Jun-24 22:01N 36°60' W 123°11'2 4.8
2017-Jun-24 21:31N 37°02' W 123°13'1 1.6
2017-Jun-24 21:00N 37°02' W 123°12'1 2.4
2017-Jun-24 20:31N 37°02' W 123°10'5 9.3
2017-Jun-24 20:00N 37°06' W 123°13'510.4
2017-Jun-24 19:31N 37°10' W 123°16'3 5.7
2017-Jun-24 19:00N 37°13' W 123°18'1 3.0
2017-Jun-24 18:31N 37°12' W 123°16'2 4.2
2017-Jun-24 18:01N 37°10' W 123°15'1 2.5
2017-Jun-24 17:30N 37°09' W 123°14'511.1
2017-Jun-24 17:01N 37°14' W 123°17'611.9
2017-Jun-24 16:30N 37°19' W 123°21'611.9
2017-Jun-24 16:01N 37°25' W 123°23'612.0
2017-Jun-24 15:30N 37°30' W 123°27'612.3
2017-Jun-24 15:00N 37°36' W 123°31'1312.5
2017-Jun-24 14:00N 37°48' W 123°36'612.6
2017-Jun-24 13:30N 37°54' W 123°38'612.3
2017-Jun-24 13:00N 37°59' W 123°41'611.9
2017-Jun-24 12:30N 38°05' W 123°43'611.9
2017-Jun-24 12:01N 38°11' W 123°46'611.9
2017-Jun-24 11:30N 38°16' W 123°48'611.5
2017-Jun-24 11:00N 38°22' W 123°51'611.6
2017-Jun-24 10:31N 38°27' W 123°53'611.9
2017-Jun-24 10:00N 38°33' W 123°56'612.0
2017-Jun-24 09:30N 38°39' W 123°58'612.1
2017-Jun-24 09:00N 38°44' W 124°01'611.8
2017-Jun-24 08:31N 38°50' W 124°03'611.8
2017-Jun-24 08:01N 38°55' W 124°06'611.6
2017-Jun-24 07:31N 39°01' W 124°08'20611.8
2017-Jun-23 14:00N 42°23' W 124°55'612.3
2017-Jun-23 13:31N 42°30' W 124°55'612.8
2017-Jun-23 13:00N 42°36' W 124°55'612.8
2017-Jun-23 12:30N 42°42' W 124°56'612.5
2017-Jun-23 12:00N 42°49' W 124°56'612.5
2017-Jun-23 11:29N 42°55' W 124°54'1012.2
2017-Jun-23 10:40N 43°05' W 124°52'212.2
2017-Jun-23 10:30N 43°07' W 124°52'612.1
2017-Jun-23 10:01N 43°13' W 124°51'812.1
2017-Jun-23 09:22N 43°20' W 124°49'1712.3
2017-Jun-23 08:01N 43°37' W 124°46'012.3
2017-Jun-23 07:59N 43°37' W 124°46'912.0
2017-Jun-23 07:13N 43°47' W 124°44'212.1
2017-Jun-23 07:00N 43°49' W 124°44'612.0
2017-Jun-23 06:30N 43°55' W 124°43'612.3
2017-Jun-23 06:00N 44°01' W 124°40'510.7
2017-Jun-23 05:31N 44°05' W 124°36'611.9
2017-Jun-23 05:00N 44°11' W 124°32'612.6
2017-Jun-23 04:31N 44°16' W 124°28'713.2
2017-Jun-23 04:01N 44°22' W 124°24'712.9
2017-Jun-23 03:28N 44°28' W 124°19'4 9.2
2017-Jun-23 02:59N 44°31' W 124°14'510.2
2017-Jun-23 02:29N 44°35' W 124°09'4 9.0
2017-Jun-23 02:00N 44°37' W 124°04'1 0.1
2017-Jun-22 14:19N 44°38' W 124°03'0 0.0
2017-Jun-22 06:13N 44°38' W 124°03'0 0.0
2017-Jun-22 05:58N 44°38' W 124°03'0 0.0
2017-Jun-22 05:10N 44°38' W 124°03'0 0.0
2017-Jun-22 04:58N 44°38' W 124°03'0 0.0
2017-Jun-22 04:10N 44°38' W 124°03'0 0.0
2017-Jun-22 03:49N 44°38' W 124°03'0 0.0
2017-Jun-22 03:22N 44°38' W 124°03'0 0.0
2017-Jun-21 16:31N 44°38' W 124°03'0 0.0
2017-Jun-21 14:04N 44°38' W 124°03'0 0.0
2017-Jun-21 13:28N 44°38' W 124°03'0 0.0
2017-Jun-21 12:55N 44°38' W 124°03'0 0.0
2017-Jun-21 12:19N 44°38' W 124°03'0 0.0
2017-Jun-21 11:46N 44°38' W 124°03'0 0.0
2017-Jun-21 11:28N 44°38' W 124°03'0 0.0
2017-Jun-21 06:43N 44°38' W 124°03'0 0.0
2017-Jun-21 02:28N 44°38' W 124°03'0 0.0
2017-Jun-21 01:52N 44°38' W 124°03'0 0.0
2017-Jun-21 01:28N 44°38' W 124°03'0 0.0
2017-Jun-20 23:58N 44°38' W 124°03'0 0.0
2017-Jun-20 23:22N 44°38' W 124°03'0 0.0
2017-Jun-20 21:31N 44°38' W 124°03'0 0.0
2017-Jun-20 21:22N 44°38' W 124°03'0 0.0
2017-Jun-20 20:34N 44°38' W 124°03'0 0.0
2017-Jun-20 20:10N 44°38' W 124°03'0 0.0
2017-Jun-20 19:58N 44°38' W 124°03'0 0.0
2017-Jun-20 19:28N 44°38' W 124°03'0 0.0
2017-Jun-20 18:31N 44°38' W 124°03'0 0.0
2017-Jun-20 18:22N 44°38' W 124°03'0 0.0
2017-Jun-20 17:43N 44°38' W 124°03'0 0.0
2017-Jun-20 17:29N 44°38' W 124°03'2 5.1
2017-Jun-20 17:01N 44°36' W 124°06'2 5.0
2017-Jun-20 16:31N 44°36' W 124°09'0 0.9
2017-Jun-20 16:00N 44°37' W 124°09'1 1.1
2017-Jun-20 15:30N 44°37' W 124°09'1 1.1
2017-Jun-20 15:00N 44°38' W 124°09'1 1.0
2017-Jun-20 14:30N 44°38' W 124°09'2 1.7
2017-Jun-20 13:30N 44°38' W 124°12'2 4.0
2017-Jun-20 13:00N 44°39' W 124°14'2 4.0
2017-Jun-20 12:30N 44°39' W 124°17'2 4.2
2017-Jun-20 12:01N 44°40' W 124°20'2 4.3
2017-Jun-20 11:27N 44°41' W 124°23'2 4.5
2017-Jun-20 11:01N 44°40' W 124°26'0 0.7
2017-Jun-20 10:30N 44°40' W 124°26'0 0.1
2017-Jun-20 10:00N 44°40' W 124°26'0 0.1
2017-Jun-20 09:29N 44°40' W 124°26'0 0.0
2017-Jun-20 09:01N 44°40' W 124°26'0 0.0
2017-Jun-20 08:30N 44°40' W 124°26'0 0.0
2017-Jun-20 08:00N 44°40' W 124°26'0 0.1
2017-Jun-20 07:30N 44°40' W 124°26'0 0.0
2017-Jun-20 07:01N 44°40' W 124°26'0 0.0
2017-Jun-20 06:30N 44°40' W 124°26'1 0.8
2017-Jun-20 05:12N 44°40' W 124°25'0 0.8
2017-Jun-20 04:58N 44°41' W 124°25'1 0.8
2017-Jun-20 03:46N 44°41' W 124°24'0 0.8
2017-Jun-20 03:22N 44°42' W 124°24'1 1.0
2017-Jun-20 02:27N 44°42' W 124°23'1 1.2
2017-Jun-20 01:58N 44°42' W 124°22'1 1.2
2017-Jun-20 01:23N 44°42' W 124°21'0 1.1
2017-Jun-20 01:00N 44°43' W 124°20'4 4.1
2017-Jun-20 00:05N 44°40' W 124°16'110.7
2017-Jun-20 00:00N 44°40' W 124°15'510.0
2017-Jun-19 23:30N 44°37' W 124°09'4 7.2
2017-Jun-19 23:01N 44°37' W 124°04'1 1.0
2017-Jun-19 21:47N 44°38' W 124°03'0 0.0
2017-Jun-19 16:47N 44°38' W 124°03'0 0.0
2017-Jun-19 16:23N 44°38' W 124°03'0 0.0
2017-Jun-19 15:59N 44°38' W 124°03'0 0.0
2017-Jun-19 12:26N 44°38' W 124°03'0 0.0
2017-Jun-19 11:47N 44°38' W 124°03'0 0.0
2017-Jun-19 11:17N 44°38' W 124°03'0 0.0
2017-Jun-19 10:53N 44°38' W 124°03'0 0.0
2017-Jun-19 10:20N 44°38' W 124°03'0 0.0
2017-Jun-19 09:47N 44°38' W 124°03'0 0.0
2017-Jun-19 04:47N 44°38' W 124°03'0 0.0
2017-Jun-19 04:23N 44°38' W 124°03'0 0.0
2017-Jun-19 03:47N 44°38' W 124°03'0 0.0
2017-Jun-19 01:29N 44°38' W 124°03'0 0.0
2017-Jun-19 00:35N 44°38' W 124°03'0 0.0
2017-Jun-18 22:41N 44°38' W 124°03'0 0.0
2017-Jun-18 22:23N 44°38' W 124°03'0 0.0
2017-Jun-18 21:53N 44°38' W 124°03'0 0.0
2017-Jun-18 21:23N 44°38' W 124°03'0 0.0
2017-Jun-18 20:59N 44°38' W 124°03'0 0.0
2017-Jun-18 09:08N 44°38' W 124°03'0 0.0
2017-Jun-18 08:59N 44°38' W 124°03'0 0.0
2017-Jun-18 07:44N 44°38' W 124°03'0 0.0
2017-Jun-18 07:17N 44°38' W 124°03'0 0.0
2017-Jun-18 06:53N 44°38' W 124°03'0 0.0
2017-Jun-18 03:05N 44°38' W 124°03'0 0.0
2017-Jun-18 01:05N 44°38' W 124°03'0 0.0
2017-Jun-18 00:53N 44°38' W 124°03'0 0.0
2017-Jun-18 00:14N 44°38' W 124°03'0 0.0
2017-Jun-17 23:53N 44°38' W 124°03'0 0.0
2017-Jun-17 22:44N 44°38' W 124°03'0 0.0
2017-Jun-17 20:44N 44°38' W 124°03'0 0.0
2017-Jun-17 20:20N 44°38' W 124°03'0 0.0
2017-Jun-17 19:29N 44°38' W 124°03'0 0.0
2017-Jun-17 19:00N 44°38' W 124°03'0 0.0
2017-Jun-17 12:47N 44°38' W 124°03'0 0.0
2017-Jun-17 10:20N 44°38' W 124°03'0 0.0
2017-Jun-17 09:56N 44°38' W 124°03'0 0.0
2017-Jun-17 09:18N 44°38' W 124°03'0 0.0
2017-Jun-17 08:17N 44°38' W 124°03'0 0.0
2017-Jun-17 07:59N 44°38' W 124°03'0 0.0
2017-Jun-17 07:29N 44°38' W 124°03'0 0.0
2017-Jun-17 03:56N 44°38' W 124°03'0 0.0
2017-Jun-17 03:23N 44°38' W 124°03'0 0.0
2017-Jun-17 02:23N 44°38' W 124°03'0 0.0
2017-Jun-17 01:53N 44°38' W 124°03'0 0.0
2017-Jun-17 00:23N 44°38' W 124°03'  

Dump ship's entire track history